Time;durP1;ratioP1;P1;durP2;ratioP2;P2;SDS_P1;SDS_P2;PMS_P1;PMS_P2;Temp;Humidity;BMP_temperature;BMP_pressure;BME280_temperature;BME280_humidity;BME280_pressure;Samples;Min_cycle;Max_cycle;Signal;HPM_P1;HPM_P2
2023/09/10 00:00:28;;;;;;;17.45;15.95;;;17.60;99.90;;;;;;5077294;28;20501;-80
2023/09/10 00:02:54;;;;;;;18.73;16.75;;;17.60;99.90;;;;;;5089949;28;20472;-80
2023/09/10 00:05:20;;;;;;;18.60;16.85;;;17.60;99.90;;;;;;5089918;28;20097;-79
2023/09/10 00:07:45;;;;;;;17.92;16.25;;;17.50;99.90;;;;;;5091278;28;20150;-79
2023/09/10 00:10:11;;;;;;;18.77;17.10;;;17.50;99.90;;;;;;5085518;28;20093;-80
2023/09/10 00:12:36;;;;;;;17.90;16.08;;;17.50;99.90;;;;;;5070362;28;20546;-80
2023/09/10 00:15:04;;;;;;;17.83;16.23;;;17.60;99.90;;;;;;5070842;28;20059;-80
2023/09/10 00:17:29;;;;;;;18.50;16.70;;;17.40;99.90;;;;;;5070385;28;20123;-80
2023/09/10 00:19:55;;;;;;;17.30;15.73;;;17.40;99.90;;;;;;5069277;28;20131;-79
2023/09/10 00:22:20;;;;;;;19.73;17.92;;;17.40;99.90;;;;;;5070924;28;20127;-79
2023/09/10 00:24:46;;;;;;;20.02;18.23;;;17.40;99.90;;;;;;5070822;28;20052;-80
2023/09/10 00:27:13;;;;;;;21.00;19.08;;;17.40;99.90;;;;;;5081469;28;20442;-79
2023/09/10 00:29:39;;;;;;;20.08;17.98;;;17.40;99.90;;;;;;5089038;28;20071;-79
2023/09/10 00:32:05;;;;;;;21.30;19.27;;;17.30;99.90;;;;;;5070954;28;20134;-79
2023/09/10 00:34:32;;;;;;;19.77;18.00;;;17.30;99.90;;;;;;5087352;28;20097;-80
2023/09/10 00:36:58;;;;;;;18.83;17.17;;;17.30;99.90;;;;;;5089225;28;20071;-80
2023/09/10 00:39:24;;;;;;;19.73;17.92;;;17.20;99.90;;;;;;5090855;28;20193;-80
2023/09/10 00:41:53;;;;;;;18.13;16.42;;;17.20;99.90;;;;;;5074832;28;20122;-80
2023/09/10 00:44:20;;;;;;;17.80;16.13;;;17.20;99.90;;;;;;5080715;28;20422;-80
2023/09/10 00:46:45;;;;;;;16.73;15.15;;;17.20;99.90;;;;;;5070073;28;20410;-79
2023/09/10 00:49:12;;;;;;;16.02;14.68;;;17.10;99.90;;;;;;5069889;28;20143;-80
2023/09/10 00:51:38;;;;;;;16.17;14.68;;;17.10;99.90;;;;;;5086009;28;20460;-79
2023/09/10 00:54:04;;;;;;;15.75;14.25;;;17.00;99.90;;;;;;5089780;28;20461;-80
2023/09/10 00:56:30;;;;;;;17.45;15.95;;;17.00;99.90;;;;;;5083151;28;20051;-79
2023/09/10 00:58:56;;;;;;;16.33;14.82;;;16.90;99.90;;;;;;5070279;28;20044;-79
2023/09/10 01:01:22;;;;;;;16.75;15.23;;;16.90;99.90;;;;;;5069965;28;20501;-80
2023/09/10 01:03:48;;;;;;;16.20;14.60;;;16.90;99.90;;;;;;5069921;28;20148;-79
2023/09/10 01:06:14;;;;;;;18.73;17.02;;;16.90;99.90;;;;;;5069930;28;20131;-79
2023/09/10 01:08:39;;;;;;;18.30;16.58;;;16.90;99.90;;;;;;5069925;28;20048;-79
2023/09/10 01:11:34;;;;;;;17.50;15.93;;;16.80;99.90;;;;;;5070542;28;20045;-79
2023/09/10 01:14:19;;;;;;;19.20;17.40;;;16.80;99.90;;;;;;5088021;28;20062;-79
2023/09/10 01:16:55;;;;;;;19.52;17.73;;;16.80;99.90;;;;;;5070242;28;20093;-80
2023/09/10 01:19:45;;;;;;;18.20;16.40;;;16.80;99.90;;;;;;5068819;28;20060;-79
2023/09/10 01:22:49;;;;;;;18.60;16.88;;;16.80;99.90;;;;;;5067886;28;20430;-80
2023/09/10 01:25:15;;;;;;;18.45;16.75;;;16.80;99.90;;;;;;5068395;28;20059;-80
2023/09/10 01:27:43;;;;;;;19.73;17.88;;;16.70;99.90;;;;;;5072576;28;20044;-80
2023/09/10 01:30:09;;;;;;;19.90;18.10;;;16.70;99.90;;;;;;5060486;28;20044;-79
2023/09/10 01:32:40;;;;;;;18.38;16.70;;;16.70;99.90;;;;;;5069110;28;20056;-80
2023/09/10 01:35:12;;;;;;;18.40;16.60;;;16.70;99.90;;;;;;5068672;28;20060;-80
2023/09/10 01:38:03;;;;;;;19.55;17.40;;;16.70;99.90;;;;;;5069576;28;20053;-80
2023/09/10 01:40:44;;;;;;;21.27;19.23;;;16.70;99.90;;;;;;5068923;28;20113;-80
2023/09/10 01:43:10;;;;;;;19.73;18.00;;;16.70;99.90;;;;;;5069424;28;20111;-79
2023/09/10 01:45:36;;;;;;;18.83;17.08;;;16.60;99.90;;;;;;5069719;28;20123;-80
2023/09/10 01:48:02;;;;;;;21.52;19.52;;;16.60;99.90;;;;;;5069010;28;20048;-80
2023/09/10 01:50:31;;;;;;;20.10;18.35;;;16.60;99.90;;;;;;5068919;28;20056;-79
2023/09/10 01:52:58;;;;;;;21.75;19.67;;;16.60;99.90;;;;;;5073935;28;20052;-80
2023/09/10 01:55:24;;;;;;;20.08;18.30;;;16.60;99.90;;;;;;5089053;28;20059;-80
2023/09/10 01:57:52;;;;;;;20.40;18.40;;;16.60;99.90;;;;;;5089457;28;20063;-79
2023/09/10 02:00:17;;;;;;;20.38;18.38;;;16.60;99.90;;;;;;5089236;28;20555;-79
2023/09/10 02:02:43;;;;;;;20.58;18.58;;;16.60;99.90;;;;;;5083727;28;20045;-80
2023/09/10 02:05:08;;;;;;;21.30;19.08;;;16.60;99.90;;;;;;5068936;28;20036;-80
2023/09/10 02:07:34;;;;;;;20.33;18.42;;;16.60;99.90;;;;;;5069470;28;20070;-79
2023/09/10 02:10:00;;;;;;;19.60;17.80;;;16.50;99.90;;;;;;5066661;28;20109;-79
2023/09/10 02:12:25;;;;;;;22.98;20.65;;;16.50;99.90;;;;;;5068432;28;20143;-79
2023/09/10 02:14:51;;;;;;;21.70;19.70;;;16.50;99.90;;;;;;5068506;28;20048;-79
2023/09/10 02:17:16;;;;;;;22.13;20.02;;;16.50;99.90;;;;;;5050402;28;20044;-80
2023/09/10 02:19:42;;;;;;;20.88;18.95;;;16.50;99.90;;;;;;5068250;28;20067;-79
2023/09/10 02:22:08;;;;;;;22.13;19.80;;;16.50;99.90;;;;;;5068692;28;20224;-79
2023/09/10 02:24:33;;;;;;;20.23;18.25;;;16.50;99.90;;;;;;5067405;28;20048;-79
2023/09/10 02:26:59;;;;;;;20.88;18.88;;;16.40;99.90;;;;;;5067566;28;20048;-80
2023/09/10 02:29:24;;;;;;;20.98;19.13;;;16.40;99.90;;;;;;5067233;28;20053;-79
2023/09/10 02:31:50;;;;;;;19.67;17.88;;;16.40;99.90;;;;;;5068767;28;20048;-78
2023/09/10 02:34:15;;;;;;;19.23;17.35;;;16.50;99.90;;;;;;5067918;28;20090;-79
2023/09/10 02:36:41;;;;;;;22.75;20.55;;;16.40;99.90;;;;;;5068676;28;20043;-79
2023/09/10 02:39:07;;;;;;;22.38;20.08;;;16.40;99.90;;;;;;5066924;28;20113;-79
2023/09/10 02:41:32;;;;;;;21.10;19.10;;;16.40;99.90;;;;;;5067616;28;20079;-79
2023/09/10 02:43:58;;;;;;;20.55;18.55;;;16.40;99.90;;;;;;5077215;28;20048;-79
2023/09/10 02:46:25;;;;;;;20.70;18.83;;;16.40;99.90;;;;;;5087886;28;20056;-80
2023/09/10 02:48:50;;;;;;;20.25;18.42;;;16.40;99.90;;;;;;5086703;28;20056;-79
2023/09/10 02:51:16;;;;;;;21.30;19.20;;;16.30;99.90;;;;;;5087425;28;20052;-79
2023/09/10 02:53:42;;;;;;;23.63;21.40;;;16.30;99.90;;;;;;5070770;28;20059;-79
2023/09/10 02:56:07;;;;;;;22.60;20.50;;;16.20;99.90;;;;;;5066937;28;20123;-79
2023/09/10 02:58:33;;;;;;;22.35;20.17;;;16.30;99.90;;;;;;5067577;28;20047;-79
2023/09/10 03:01:04;;;;;;;23.10;20.73;;;16.20;99.90;;;;;;5069274;28;20036;-79
2023/09/10 03:03:29;;;;;;;24.65;22.23;;;16.30;99.90;;;;;;5072819;28;20041;-79
2023/09/10 03:05:55;;;;;;;22.55;20.33;;;16.20;99.90;;;;;;5067418;28;20051;-80
2023/09/10 03:08:20;;;;;;;23.35;21.00;;;16.20;99.90;;;;;;5067511;28;20048;-80
2023/09/10 03:10:46;;;;;;;22.80;20.60;;;16.20;99.90;;;;;;5066985;28;20104;-79
2023/09/10 03:13:11;;;;;;;24.02;21.73;;;16.20;99.90;;;;;;5066423;28;20056;-79
2023/09/10 03:15:37;;;;;;;25.50;22.98;;;16.20;99.90;;;;;;5067339;28;20760;-79
2023/09/10 03:18:03;;;;;;;25.77;23.33;;;16.20;99.90;;;;;;5064663;28;20118;-79
2023/09/10 03:20:28;;;;;;;27.35;24.67;;;16.10;99.90;;;;;;5065339;28;20044;-79
2023/09/10 03:22:58;;;;;;;25.98;23.48;;;16.10;99.90;;;;;;5066863;28;20521;-80
2023/09/10 03:25:24;;;;;;;26.90;24.27;;;16.10;99.90;;;;;;5066835;28;20045;-79
2023/09/10 03:27:49;;;;;;;27.95;25.23;;;16.10;99.90;;;;;;5066515;28;20044;-79
2023/09/10 03:30:16;;;;;;;26.63;24.02;;;16.10;99.90;;;;;;5066917;28;20055;-80
2023/09/10 03:32:42;;;;;;;25.83;23.38;;;16.10;99.90;;;;;;5066105;28;20470;-80
2023/09/10 03:35:10;;;;;;;24.83;22.30;;;16.10;99.90;;;;;;5083361;28;20046;-79
2023/09/10 03:37:36;;;;;;;26.58;23.90;;;16.10;99.90;;;;;;5085794;28;20177;-80
2023/09/10 03:40:04;;;;;;;26.67;23.98;;;16.10;99.90;;;;;;5086939;28;20131;-80
2023/09/10 03:42:30;;;;;;;27.27;24.63;;;16.10;99.90;;;;;;5086871;28;20052;-80
2023/09/10 03:44:55;;;;;;;26.50;23.67;;;16.10;99.90;;;;;;5070216;28;20066;-80
2023/09/10 03:47:21;;;;;;;27.23;24.63;;;16.10;99.90;;;;;;5066592;28;20044;-80
2023/09/10 03:49:46;;;;;;;26.13;23.63;;;16.10;99.90;;;;;;5030102;28;1043176;-80
2023/09/10 03:52:20;;;;;;;26.45;23.95;;;16.00;99.90;;;;;;5067445;28;20135;-80
2023/09/10 03:54:46;;;;;;;26.25;23.65;;;16.10;99.90;;;;;;5077362;28;20048;-79
2023/09/10 03:57:11;;;;;;;26.65;24.05;;;16.00;99.90;;;;;;5087680;28;20046;-80
2023/09/10 03:59:37;;;;;;;25.20;22.67;;;16.00;99.90;;;;;;5086489;28;20067;-80
2023/09/10 04:02:03;;;;;;;26.02;23.52;;;16.00;99.90;;;;;;5087786;28;20048;-80
2023/09/10 04:04:28;;;;;;;27.42;23.55;;;16.00;99.90;;;;;;5077727;28;20745;-79
2023/09/10 04:06:54;;;;;;;25.17;22.55;;;16.00;99.90;;;;;;5067664;28;20147;-79
2023/09/10 04:09:20;;;;;;;25.08;22.67;;;16.00;99.90;;;;;;5072141;28;20064;-79
2023/09/10 04:11:45;;;;;;;25.67;23.27;;;15.90;99.90;;;;;;5087457;28;20048;-79
2023/09/10 04:14:11;;;;;;;25.77;23.27;;;15.90;99.90;;;;;;5080995;28;20144;-79
2023/09/10 04:16:36;;;;;;;25.23;22.73;;;15.90;99.90;;;;;;5067252;28;20110;-79
2023/09/10 04:19:02;;;;;;;25.13;22.45;;;15.90;99.90;;;;;;5065325;28;20056;-79
2023/09/10 04:21:28;;;;;;;26.80;24.20;;;15.90;99.90;;;;;;5066726;28;20055;-79
2023/09/10 04:23:53;;;;;;;31.38;28.17;;;15.90;99.90;;;;;;5070814;28;20059;-79
2023/09/10 04:26:20;;;;;;;31.85;28.55;;;15.90;99.90;;;;;;5069238;28;20453;-79
2023/09/10 04:28:45;;;;;;;30.70;27.65;;;15.90;99.90;;;;;;5086042;28;20112;-79
2023/09/10 04:31:16;;;;;;;29.73;26.77;;;15.90;99.90;;;;;;5086141;28;20708;-79
2023/09/10 04:33:42;;;;;;;33.55;30.15;;;15.90;99.90;;;;;;5086289;28;20044;-81
2023/09/10 04:36:08;;;;;;;29.40;26.60;;;15.90;99.90;;;;;;5089615;28;20502;-81
2023/09/10 04:38:34;;;;;;;31.17;27.98;;;15.90;99.90;;;;;;5091153;28;20460;-81
2023/09/10 04:41:00;;;;;;;33.40;29.90;;;16.00;99.90;;;;;;5090952;28;20043;-80
2023/09/10 04:43:25;;;;;;;30.85;27.75;;;16.00;99.90;;;;;;5088607;28;20910;-81
2023/09/10 04:45:51;;;;;;;36.35;32.67;;;16.00;99.90;;;;;;5091194;28;20044;-81
2023/09/10 04:48:17;;;;;;;36.03;31.70;;;16.00;99.90;;;;;;5089355;28;20044;-81
2023/09/10 04:50:44;;;;;;;33.38;29.98;;;16.00;99.90;;;;;;5071556;28;20541;-80
2023/09/10 04:53:12;;;;;;;34.83;31.30;;;16.00;99.90;;;;;;5070386;28;20110;-80
2023/09/10 04:55:38;;;;;;;33.25;29.90;;;16.00;99.90;;;;;;5070327;28;20122;-80
2023/09/10 04:58:04;;;;;;;33.33;29.98;;;16.00;99.90;;;;;;5069282;28;20117;-80
2023/09/10 05:00:30;;;;;;;34.78;31.38;;;16.00;99.90;;;;;;5082175;28;20409;-80
2023/09/10 05:02:56;;;;;;;35.72;32.08;;;16.00;99.90;;;;;;5076692;28;20049;-80
2023/09/10 05:05:21;;;;;;;37.00;33.03;;;16.00;99.90;;;;;;5086629;28;20379;-80
2023/09/10 05:07:50;;;;;;;32.90;29.60;;;16.00;99.90;;;;;;5088955;28;20052;-79
2023/09/10 05:10:16;;;;;;;34.53;31.02;;;16.00;99.90;;;;;;5076974;28;20028;-78
2023/09/10 05:12:42;;;;;;;35.97;32.35;;;16.00;99.90;;;;;;5069719;28;20068;-78
2023/09/10 05:15:10;;;;;;;37.95;32.60;;;16.00;99.90;;;;;;5089796;28;20450;-79
2023/09/10 05:17:36;;;;;;;34.35;30.83;;;16.00;99.90;;;;;;5089384;28;20444;-78
2023/09/10 05:20:03;;;;;;;31.83;28.60;;;16.10;99.90;;;;;;5077741;28;20045;-79
2023/09/10 05:22:29;;;;;;;32.58;29.05;;;16.10;99.90;;;;;;5088185;28;20553;-79
2023/09/10 05:24:54;;;;;;;34.00;30.55;;;16.10;99.90;;;;;;5089941;28;20119;-79
2023/09/10 05:27:20;;;;;;;30.80;27.60;;;16.10;99.90;;;;;;5087817;28;20080;-80
2023/09/10 05:29:46;;;;;;;29.48;26.42;;;16.10;99.90;;;;;;5085164;28;20047;-81
2023/09/10 05:32:11;;;;;;;32.40;29.02;;;16.20;99.90;;;;;;5063323;28;20056;-80
2023/09/10 05:34:37;;;;;;;33.25;29.83;;;16.20;99.90;;;;;;5077304;28;20502;-80
2023/09/10 05:37:03;;;;;;;34.90;31.25;;;16.20;99.90;;;;;;5069419;28;20059;-80
2023/09/10 05:39:29;;;;;;;32.35;28.98;;;16.20;99.90;;;;;;5072408;28;20036;-81
2023/09/10 05:41:54;;;;;;;33.53;30.10;;;16.30;99.90;;;;;;5070454;28;20506;-81
2023/09/10 05:44:20;;;;;;;30.80;27.73;;;16.30;99.90;;;;;;5080957;28;20048;-81
2023/09/10 05:46:46;;;;;;;33.72;30.30;;;16.40;99.90;;;;;;5070201;28;20506;-81
2023/09/10 05:49:12;;;;;;;32.90;29.30;;;16.40;99.90;;;;;;5068467;28;20056;-81
2023/09/10 05:51:38;;;;;;;35.05;31.42;;;16.40;99.90;;;;;;5086256;28;20047;-81
2023/09/10 05:54:04;;;;;;;31.10;27.88;;;16.60;99.90;;;;;;5076264;28;20051;-80
2023/09/10 05:56:29;;;;;;;24.38;22.02;;;16.60;99.90;;;;;;5074267;28;20151;-80
2023/09/10 05:58:55;;;;;;;24.33;21.73;;;16.60;99.90;;;;;;5083499;28;20075;-80
2023/09/10 06:01:21;;;;;;;25.25;22.83;;;16.70;99.90;;;;;;5076184;28;20040;-80
2023/09/10 06:03:46;;;;;;;26.35;23.65;;;16.80;99.90;;;;;;5075761;28;20041;-80
2023/09/10 06:06:16;;;;;;;25.33;22.75;;;16.80;99.90;;;;;;5068094;28;20045;-81
2023/09/10 06:08:41;;;;;;;25.17;22.60;;;16.90;99.90;;;;;;5068628;28;20514;-82
2023/09/10 06:11:07;;;;;;;25.95;23.35;;;17.00;99.90;;;;;;5085097;28;20044;-83
2023/09/10 06:13:32;;;;;;;28.10;25.38;;;17.10;99.90;;;;;;5071561;28;20051;-81
2023/09/10 06:15:58;;;;;;;29.23;26.33;;;17.10;99.90;;;;;;5073672;28;20032;-82
2023/09/10 06:18:24;;;;;;;31.40;28.00;;;17.20;99.90;;;;;;5067992;28;20102;-82
2023/09/10 06:20:49;;;;;;;29.50;26.50;;;17.30;99.90;;;;;;5076850;28;20044;-82
2023/09/10 06:23:15;;;;;;;27.05;24.33;;;17.50;99.90;;;;;;5070577;28;20044;-81
2023/09/10 06:25:41;;;;;;;27.95;25.30;;;17.50;99.90;;;;;;5076486;28;20032;-81
2023/09/10 06:28:07;;;;;;;26.65;23.90;;;17.60;99.90;;;;;;5070342;28;20116;-81
2023/09/10 06:30:32;;;;;;;26.83;24.23;;;17.80;99.90;;;;;;5079388;28;20065;-82
2023/09/10 06:32:58;;;;;;;28.88;25.88;;;17.90;99.90;;;;;;5070003;28;20468;-80
2023/09/10 06:35:25;;;;;;;26.33;23.65;;;18.00;99.90;;;;;;5075780;28;20068;-82
2023/09/10 06:37:50;;;;;;;28.52;25.58;;;18.00;99.90;;;;;;5074456;28;20119;-81
2023/09/10 06:40:16;;;;;;;32.85;29.45;;;18.20;99.90;;;;;;5075406;28;20123;-80
2023/09/10 06:42:43;;;;;;;34.55;30.75;;;18.20;99.90;;;;;;5068832;28;20155;-80
2023/09/10 06:45:08;;;;;;;35.72;32.00;;;18.30;99.90;;;;;;5084788;28;20451;-80
2023/09/10 06:47:34;;;;;;;36.13;32.42;;;18.50;99.90;;;;;;5071480;28;20029;-81
2023/09/10 06:49:59;;;;;;;37.83;33.90;;;18.60;99.90;;;;;;5082240;28;20127;-81
2023/09/10 06:52:25;;;;;;;35.95;32.35;;;18.80;99.90;;;;;;5072704;28;20052;-81
2023/09/10 06:54:51;;;;;;;37.22;33.38;;;18.80;99.90;;;;;;5074520;28;20044;-80
2023/09/10 06:57:16;;;;;;;37.00;33.08;;;19.00;99.90;;;;;;5083702;28;20047;-81
2023/09/10 06:59:42;;;;;;;38.45;34.65;;;19.20;99.90;;;;;;5078109;28;20040;-81
2023/09/10 07:02:07;;;;;;;36.08;32.35;;;19.30;99.90;;;;;;5084144;28;20040;-80
2023/09/10 07:04:33;;;;;;;37.45;33.63;;;19.40;99.90;;;;;;5081015;28;20040;-81
2023/09/10 07:06:58;;;;;;;38.67;34.80;;;19.50;99.90;;;;;;5067539;28;20080;-81
2023/09/10 07:09:24;;;;;;;36.17;32.47;;;19.70;99.90;;;;;;5066832;28;20041;-80
2023/09/10 07:11:51;;;;;;;35.58;31.92;;;19.80;99.90;;;;;;5073030;28;20089;-81
2023/09/10 07:14:17;;;;;;;37.00;33.35;;;19.90;99.90;;;;;;5071300;28;20068;-80
2023/09/10 07:16:44;;;;;;;38.13;34.35;;;20.10;99.90;;;;;;5066841;28;20526;-81
2023/09/10 07:19:11;;;;;;;36.70;32.92;;;20.20;99.90;;;;;;5065881;28;20050;-81
2023/09/10 07:21:36;;;;;;;36.47;32.90;;;20.20;99.90;;;;;;5066715;28;20049;-80
2023/09/10 07:24:06;;;;;;;37.78;34.13;;;20.40;99.90;;;;;;5084164;28;20536;-80
2023/09/10 07:26:32;;;;;;;35.60;32.10;;;20.50;99.90;;;;;;5075657;28;20092;-81
2023/09/10 07:28:58;;;;;;;33.42;30.20;;;20.60;99.90;;;;;;5084513;28;20036;-81
2023/09/10 07:31:25;;;;;;;32.15;29.05;;;20.70;99.90;;;;;;5077389;28;20110;-80
2023/09/10 07:33:50;;;;;;;34.70;31.08;;;20.80;99.90;;;;;;5068913;28;20464;-81
2023/09/10 07:36:16;;;;;;;31.77;28.88;;;21.10;99.90;;;;;;5066575;28;20114;-81
2023/09/10 07:38:41;;;;;;;34.58;31.20;;;21.00;99.90;;;;;;5068436;28;20148;-81
2023/09/10 07:41:07;;;;;;;32.67;29.48;;;21.10;99.90;;;;;;5070720;28;20056;-80
2023/09/10 07:43:33;;;;;;;33.63;30.15;;;21.20;99.90;;;;;;5076904;28;20144;-81
2023/09/10 07:45:58;;;;;;;30.58;27.63;;;21.30;99.90;;;;;;5077419;28;20035;-80
2023/09/10 07:48:24;;;;;;;31.60;28.35;;;21.30;99.90;;;;;;5069728;28;20523;-80
2023/09/10 07:50:57;;;;;;;31.75;28.77;;;21.50;99.90;;;;;;5069736;28;20056;-81
2023/09/10 07:53:23;;;;;;;30.23;27.05;;;21.60;99.90;;;;;;5076304;28;20135;-80
2023/09/10 07:55:49;;;;;;;30.08;27.10;;;21.70;99.90;;;;;;5080808;28;21524;-80
2023/09/10 07:58:14;;;;;;;32.08;28.98;;;21.80;99.90;;;;;;5081147;28;20040;-81
2023/09/10 08:00:40;;;;;;;30.33;27.17;;;22.00;99.90;;;;;;5072577;28;21564;-81
2023/09/10 08:03:06;;;;;;;29.42;26.70;;;22.10;99.90;;;;;;5077406;28;20041;-81
2023/09/10 08:05:33;;;;;;;27.80;25.30;;;22.20;99.90;;;;;;5066344;28;20041;-80
2023/09/10 08:08:05;;;;;;;29.55;26.75;;;22.20;99.90;;;;;;5074590;28;20044;-80
2023/09/10 08:10:32;;;;;;;27.15;24.38;;;22.60;99.90;;;;;;5075602;28;20541;-80
2023/09/10 08:12:58;;;;;;;25.85;23.48;;;22.50;99.90;;;;;;5087000;28;20089;-80
2023/09/10 08:15:24;;;;;;;27.27;24.75;;;22.70;99.90;;;;;;5085391;28;20043;-80
2023/09/10 08:17:52;;;;;;;25.90;23.38;;;22.80;99.90;;;;;;5074700;28;20831;-81
2023/09/10 08:20:17;;;;;;;24.38;21.83;;;23.00;99.90;;;;;;5071647;28;20197;-81
2023/09/10 08:22:43;;;;;;;25.40;22.98;;;23.10;99.90;;;;;;5080245;28;20091;-79
2023/09/10 08:25:09;;;;;;;26.48;23.98;;;23.20;99.90;;;;;;5071771;28;20383;-80
2023/09/10 08:27:35;;;;;;;25.05;22.58;;;23.30;99.90;;;;;;5073893;28;20044;-82
2023/09/10 08:30:05;;;;;;;24.90;22.52;;;23.40;99.90;;;;;;5073307;28;20110;-81
2023/09/10 08:32:34;;;;;;;25.13;22.80;;;23.40;99.90;;;;;;5079902;28;20087;-81
2023/09/10 08:35:00;;;;;;;24.08;21.88;;;23.50;99.90;;;;;;5091371;28;20070;-80
2023/09/10 08:37:25;;;;;;;23.45;21.38;;;23.60;99.90;;;;;;5079721;28;20117;-80
2023/09/10 08:39:51;;;;;;;23.17;21.05;;;23.60;99.90;;;;;;5080544;28;20122;-80
2023/09/10 08:42:34;;;;;;;23.83;21.60;;;23.70;99.90;;;;;;5076013;28;20048;-80
2023/09/10 08:45:04;;;;;;;23.05;20.95;;;23.70;99.90;;;;;;5074585;28;20379;-80
2023/09/10 08:47:39;;;;;;;21.85;19.77;;;23.80;99.90;;;;;;5078923;28;20051;-80
2023/09/10 08:50:09;;;;;;;21.13;19.00;;;23.90;99.90;;;;;;5075344;28;20135;-81
2023/09/10 08:52:41;;;;;;;21.02;19.02;;;24.00;99.90;;;;;;5075770;28;20041;-81
2023/09/10 08:55:08;;;;;;;20.45;18.45;;;24.10;99.90;;;;;;5070948;28;20051;-81
2023/09/10 08:57:37;;;;;;;21.63;19.55;;;24.40;99.90;;;;;;5078591;28;20052;-80
2023/09/10 09:00:12;;;;;;;21.50;18.92;;;24.40;99.90;;;;;;5072819;28;20127;-81
2023/09/10 09:02:45;;;;;;;22.42;20.10;;;24.50;99.90;;;;;;5075660;28;20627;-81
2023/09/10 09:05:11;;;;;;;19.95;18.20;;;24.60;99.90;;;;;;5074114;28;20076;-81
2023/09/10 09:07:51;;;;;;;20.02;18.05;;;24.60;99.90;;;;;;5068443;28;20090;-80
2023/09/10 09:10:21;;;;;;;20.23;18.27;;;24.70;99.90;;;;;;5076961;28;20106;-79
2023/09/10 09:12:50;;;;;;;18.73;16.85;;;24.80;99.90;;;;;;5079434;28;20448;-81
2023/09/10 09:15:17;;;;;;;18.15;16.55;;;24.80;99.90;;;;;;5076886;28;20059;-80
2023/09/10 09:17:46;;;;;;;16.83;15.23;;;24.90;99.90;;;;;;5077790;28;20056;-81
2023/09/10 09:20:16;;;;;;;15.77;14.38;;;25.00;99.90;;;;;;5085765;28;20048;-80
2023/09/10 09:22:46;;;;;;;16.02;14.63;;;25.10;99.90;;;;;;5083853;28;20032;-80
2023/09/10 09:25:12;;;;;;;16.63;15.13;;;25.20;99.90;;;;;;5081204;28;20130;-80
2023/09/10 09:27:39;;;;;;;16.10;14.70;;;25.20;99.90;;;;;;5075777;28;20498;-78
2023/09/10 09:30:06;;;;;;;15.68;14.00;;;25.30;99.90;;;;;;5063165;28;20151;-78
2023/09/10 09:32:37;;;;;;;15.70;14.20;;;25.40;99.90;;;;;;5076762;28;20080;-78
2023/09/10 09:35:04;;;;;;;16.40;14.90;;;25.50;99.90;;;;;;5066843;28;20052;-79
2023/09/10 09:37:32;;;;;;;16.10;14.48;;;25.60;99.90;;;;;;5081372;28;20055;-78
2023/09/10 09:40:00;;;;;;;17.65;15.45;;;25.70;99.90;;;;;;5073142;28;20112;-79
2023/09/10 09:42:26;;;;;;;14.98;13.57;;;25.70;99.90;;;;;;5072302;28;20043;-79
2023/09/10 09:44:51;;;;;;;17.27;15.65;;;25.80;99.90;;;;;;5079699;28;20040;-77
2023/09/10 09:47:17;;;;;;;15.93;14.25;;;25.90;99.90;;;;;;5071592;28;20404;-77
2023/09/10 09:49:47;;;;;;;17.70;15.85;;;26.20;99.90;;;;;;5075004;28;20051;-78
2023/09/10 09:52:18;;;;;;;17.88;16.02;;;26.00;99.90;;;;;;5077080;28;20044;-78
2023/09/10 09:54:48;;;;;;;;;;;26.10;99.90;;;;;;5071653;28;20040;-78
2023/09/10 09:57:15;;;;;;;16.50;14.65;;;26.10;99.90;;;;;;5067790;28;20280;-77
2023/09/10 09:59:42;;;;;;;14.82;13.48;;;26.20;99.90;;;;;;5063965;28;20040;-78
2023/09/10 10:02:15;;;;;;;13.68;12.13;;;26.20;99.90;;;;;;5065560;28;20044;-79
2023/09/10 10:04:42;;;;;;;13.60;12.50;;;26.40;99.90;;;;;;5066696;28;20032;-78
2023/09/10 10:07:09;;;;;;;14.25;12.70;;;26.50;99.90;;;;;;5071449;28;20045;-78
2023/09/10 10:09:42;;;;;;;13.85;12.15;;;26.60;99.90;;;;;;5065923;28;20044;-81
2023/09/10 10:12:08;;;;;;;15.50;13.70;;;26.60;99.90;;;;;;5075142;28;20526;-81
2023/09/10 10:14:35;;;;;;;16.05;13.15;;;26.70;99.90;;;;;;5077550;28;20125;-81
2023/09/10 10:17:03;;;;;;;16.30;14.90;;;26.70;99.90;;;;;;5077345;28;20498;-80
2023/09/10 10:19:32;;;;;;;15.13;13.63;;;26.80;99.90;;;;;;5075759;28;20050;-77
2023/09/10 10:21:59;;;;;;;14.73;13.23;;;26.80;99.90;;;;;;5069242;28;20041;-78
2023/09/10 10:24:26;;;;;;;15.90;14.40;;;26.90;99.90;;;;;;5076044;28;20068;-77
2023/09/10 10:26:53;;;;;;;16.17;14.57;;;26.80;99.90;;;;;;5068033;28;20058;-79
2023/09/10 10:29:20;;;;;;;15.50;13.82;;;26.90;99.90;;;;;;5074034;28;20094;-79
2023/09/10 10:31:48;;;;;;;14.32;12.90;;;26.80;99.90;;;;;;5067142;28;20122;-80
2023/09/10 10:34:23;;;;;;;14.48;13.07;;;26.80;99.90;;;;;;5072319;28;20048;-79
2023/09/10 10:37:16;;;;;;;14.27;12.80;;;26.80;99.90;;;;;;5069447;28;20063;-78
2023/09/10 10:39:53;;;;;;;14.15;12.77;;;26.80;99.90;;;;;;5067216;28;20058;-78
2023/09/10 10:42:33;;;;;;;15.65;11.05;;;27.00;99.90;;;;;;5066618;28;20048;-78
2023/09/10 10:45:03;;;;;;;17.55;12.43;;;27.00;99.90;;;;;;5073651;28;20044;-78
2023/09/10 10:47:32;;;;;;;13.55;12.45;;;27.10;99.90;;;;;;5067326;28;20048;-79
2023/09/10 10:49:59;;;;;;;14.85;13.25;;;27.00;99.90;;;;;;5074112;28;20044;-79
2023/09/10 10:52:35;;;;;;;14.02;10.98;;;27.10;99.90;;;;;;5077077;28;20048;-79
2023/09/10 10:55:01;;;;;;;17.67;11.55;;;27.10;99.90;;;;;;5077320;28;20044;-78
2023/09/10 10:57:29;;;;;;;12.02;10.73;;;27.10;99.90;;;;;;5066279;28;20051;-78
2023/09/10 10:59:55;;;;;;;15.18;12.38;;;27.20;99.90;;;;;;5080060;28;20055;-79
2023/09/10 11:02:22;;;;;;;12.77;11.63;;;27.30;99.90;;;;;;5068043;28;20044;-79
2023/09/10 11:05:07;;;;;;;15.32;10.95;;;27.30;99.90;;;;;;5083090;28;20036;-79
2023/09/10 11:07:33;;;;;;;11.30;9.68;;;27.30;99.90;;;;;;5066692;28;20040;-79
2023/09/10 11:10:20;;;;;;;11.90;10.75;;;27.50;99.90;;;;;;5066847;28;20055;-80
2023/09/10 11:13:10;;;;;;;11.70;10.43;;;27.60;99.90;;;;;;5067264;28;20040;-80
2023/09/10 11:15:36;;;;;;;14.10;10.60;;;27.70;99.30;;;;;;5069292;28;20086;-80
2023/09/10 11:18:37;;;;;;;14.13;9.90;;;27.70;99.30;;;;;;5072464;28;20055;-81
2023/09/10 11:21:04;;;;;;;10.70;9.60;;;27.80;98.10;;;;;;5067653;28;20135;-82
2023/09/10 11:23:31;;;;;;;13.00;10.35;;;27.80;98.10;;;;;;5065647;28;20044;-82
2023/09/10 11:26:14;;;;;;;12.80;10.43;;;27.80;97.70;;;;;;5058562;28;20055;-82
2023/09/10 11:28:54;;;;;;;11.30;9.15;;;27.90;97.90;;;;;;5076787;28;20494;-82
2023/09/10 11:31:37;;;;;;;11.52;9.65;;;28.00;97.90;;;;;;5065934;28;20061;-80
2023/09/10 11:34:18;;;;;;;10.52;8.63;;;28.00;97.70;;;;;;5073165;28;20055;-80
2023/09/10 11:36:54;;;;;;;14.40;9.80;;;28.20;97.60;;;;;;5068350;28;20052;-82
2023/09/10 11:39:20;;;;;;;11.57;10.43;;;28.20;97.30;;;;;;5081257;28;20104;-81
2023/09/10 11:41:47;;;;;;;13.75;10.07;;;28.00;96.90;;;;;;5073642;28;20044;-81
2023/09/10 11:44:13;;;;;;;12.38;8.52;;;28.10;97.60;;;;;;5071732;28;20049;-81
2023/09/10 11:46:40;;;;;;;13.18;9.75;;;28.10;97.80;;;;;;5072690;28;20406;-82
2023/09/10 11:49:05;;;;;;;15.23;9.35;;;28.10;97.60;;;;;;5081134;28;20532;-82
2023/09/10 11:51:31;;;;;;;11.95;8.82;;;28.20;97.50;;;;;;5077506;28;20044;-81
2023/09/10 11:53:58;;;;;;;19.70;9.95;;;28.30;97.10;;;;;;5072806;28;20064;-82
2023/09/10 11:56:24;;;;;;;13.65;9.68;;;28.30;96.80;;;;;;5077947;28;20036;-81
2023/09/10 11:58:50;;;;;;;13.07;8.55;;;28.40;96.80;;;;;;5067280;28;20052;-81
2023/09/10 12:01:16;;;;;;;14.85;8.70;;;28.50;97.00;;;;;;5076160;28;20028;-81
2023/09/10 12:03:43;;;;;;;10.52;9.43;;;28.50;96.60;;;;;;5079772;28;20452;-81
2023/09/10 12:06:11;;;;;;;10.35;8.90;;;28.60;96.30;;;;;;5085397;28;20044;-80
2023/09/10 12:08:37;;;;;;;14.65;9.23;;;28.60;96.20;;;;;;5076171;28;20375;-80
2023/09/10 12:11:06;;;;;;;10.23;9.07;;;28.50;96.10;;;;;;5076902;28;20051;-80
2023/09/10 12:13:33;;;;;;;10.05;9.13;;;28.60;96.00;;;;;;5070659;28;20048;-80
2023/09/10 12:15:59;;;;;;;12.38;10.15;;;28.60;95.80;;;;;;5083897;28;20129;-80
2023/09/10 12:18:26;;;;;;;13.98;8.88;;;28.70;95.60;;;;;;5079804;28;20485;-80
2023/09/10 12:20:52;;;;;;;18.35;9.23;;;28.60;95.20;;;;;;5079144;28;20046;-78
2023/09/10 12:23:17;;;;;;;11.02;8.10;;;28.50;95.20;;;;;;5075111;28;20424;-79
2023/09/10 12:25:43;;;;;;;13.27;8.65;;;28.60;95.60;;;;;;5078627;28;20443;-79
2023/09/10 12:28:08;;;;;;;15.02;10.82;;;28.70;95.10;;;;;;5076824;28;20071;-79
2023/09/10 12:30:36;;;;;;;12.35;10.07;;;28.70;94.60;;;;;;5073307;28;20048;-80